Flight Track Log - Related Links

Times and Time Zones

All times are in EDT time to prevent confusion due to time zone crossing. See the N561EJ flight status page for this flight to view local times or setup timezone preferences in your user account.


Time Position Orientation Groundspeed Altitude Reporting Facility
EDT Latitude Longitude Course Direction KTS MPH feet Rate Location/Type
Sun 03:46:31 PM 30.7331 -88.1661 54° Northeast 234 269 3,900  Level Houston Center
Sun 03:47:33 PM 30.7703 -88.1075 54° Northeast 229 264 6,800 2,710 Climbing Houston Center
Sun 03:48:35 PM 30.8189 -88.0594 40° Northeast 230 265 9,500 2,371 Climbing Houston Center
Sun 03:49:37 PM 30.8711 -88.0167 35° Northeast 232 267 11,700 2,274 Climbing Houston Center
Sun 03:50:39 PM 30.9342 -87.9592 38° Northeast 240 276 14,200 1,984 Climbing Houston Center
Sun 03:51:41 PM 30.9883 -87.9072 39° Northeast 252 290 15,800 1,548 Climbing Houston Center
Sun 03:52:43 PM 31.0472 -87.8528 38° Northeast 270 311 17,400 1,500 Climbing Houston Center
Sun 03:53:45 PM 31.1097 -87.7983 37° Northeast 280 322 18,900 1,452 Climbing Houston Center
Sun 03:54:47 PM 31.1731 -87.7394 38° Northeast 289 333 20,400 1,694 Climbing Houston Center
Sun 03:55:49 PM 31.2350 -87.6786 40° Northeast 293 337 22,400 1,742 Climbing Houston Center
Sun 03:56:51 PM 31.3111 -87.6089 38° Northeast 291 335 24,000 823 Climbing Houston Center
Sun 03:57:53 PM 31.3808 -87.5403 40° Northeast 331 381 24,100 484 Climbing Houston Center
Sun 03:58:55 PM 31.4436 -87.4481 51° Northeast 359 413 25,000 484 Climbing Houston Center
Sun 03:59:57 PM 31.5069 -87.3528 52° Northeast 368 423 25,100 48 Climbing Houston Center
Sun 04:00:59 PM 31.5775 -87.2533 50° Northeast 392 451 25,100  Level Houston Center
Sun 04:02:01 PM 31.6622 -87.1292 51° Northeast 407 468 25,100  Level Houston Center
Sun 04:03:18 PM 31.7464 -87.0108 50° Northeast 406 467 25,100 701 Level Atlanta Center
Sun 04:04:18 PM 31.8156 -86.9106 51° Northeast 401 461 26,700 1,850 Climbing Atlanta Center
Sun 04:05:18 PM 31.8761 -86.8219 51° Northeast 376 433 28,800 2,100 Climbing Atlanta Center
Sun 04:06:18 PM 31.9319 -86.7431 50° Northeast 339 390 30,900 2,300 Climbing Atlanta Center
Sun 04:07:18 PM 31.9814 -86.6783 48° Northeast 297 342 33,400 1,500 Climbing Atlanta Center
Sun 04:08:18 PM 32.0264 -86.6183 48° Northeast 251 289 33,900 400 Climbing Atlanta Center
Sun 04:09:18 PM 32.0697 -86.5511 53° Northeast 246 283 34,200 350 Climbing Atlanta Center
Sun 04:10:18 PM 32.1233 -86.4742 51° Northeast 275 316 34,600 500 Climbing Atlanta Center
Sun 04:11:18 PM 32.1731 -86.3919 54° Northeast 303 349 35,200 650 Climbing Atlanta Center
Sun 04:12:18 PM 32.2331 -86.3053 51° Northeast 320 368 35,900 750 Climbing Atlanta Center
Sun 04:13:18 PM 32.3039 -86.1989 52° Northeast 345 397 36,700 650 Climbing Atlanta Center
Sun 04:14:18 PM 32.3489 -86.1239 55° Northeast 357 411 37,200 650 Climbing Atlanta Center
Sun 04:15:18 PM 32.4300 -86.0100 50° Northeast 364 419 38,000 750 Climbing Atlanta Center
Sun 04:16:18 PM 32.4942 -85.9106 53° Northeast 364 419 38,700 650 Climbing Atlanta Center
Sun 04:17:18 PM 32.5583 -85.8206 50° Northeast 383 441 39,300 650 Climbing Atlanta Center
Sun 04:18:18 PM 32.6264 -85.7208 51° Northeast 388 447 40,000 650 Climbing Atlanta Center
Sun 04:19:18 PM 32.6903 -85.6208 53° Northeast 388 447 40,600 500 Climbing Atlanta Center
Sun 04:20:18 PM 32.7564 -85.5208 52° Northeast 388 447 41,000 200 Climbing Atlanta Center
Sun 04:21:18 PM 32.8242 -85.4206 51° Northeast 388 447 41,000  Level Atlanta Center
Sun 04:22:18 PM 32.8922 -85.3153 52° Northeast 394 453 41,000  Level Atlanta Center
Sun 04:23:18 PM 32.9664 -85.2100 50° Northeast 394 453 41,000  Level Atlanta Center
Sun 04:24:18 PM 33.0361 -85.1067 51° Northeast 401 461 41,000  Level Atlanta Center
Sun 04:25:18 PM 33.1100 -84.9961 51° Northeast 413 475 41,000  Level Atlanta Center
Sun 04:26:18 PM 33.1797 -84.8853 53° Northeast 420 483 41,000  Level Atlanta Center
Sun 04:27:18 PM 33.2536 -84.7717 52° Northeast 420 483 41,000  Level Atlanta Center
Sun 04:28:18 PM 33.3250 -84.6628 52° Northeast 425 489 41,000  Level Atlanta Center
Sun 04:29:18 PM 33.3944 -84.5514 53° Northeast 420 483 41,000  Level Atlanta Center
Sun 04:30:18 PM 33.4658 -84.4397 53° Northeast 420 483 41,000  Level Atlanta Center
Sun 04:31:18 PM 33.5372 -84.3253 53° Northeast 420 483 41,000  Level Atlanta Center
Sun 04:32:18 PM 33.6125 -84.2183 50° Northeast 420 483 41,000  Level Atlanta Center
Sun 04:33:18 PM 33.6794 -84.1011 56° Northeast 420 483 41,000  Level Atlanta Center
Sun 04:34:18 PM 33.7525 -83.9889 52° Northeast 420 483 41,000  Level Atlanta Center
Sun 04:35:18 PM 33.8256 -83.8789 51° Northeast 415 478 41,000  Level Atlanta Center
Sun 04:36:18 PM 33.9025 -83.7561 53° Northeast 415 478 41,000  Level Atlanta Center
Sun 04:37:18 PM 33.9731 -83.6406 54° Northeast 421 484 41,000  Level Atlanta Center
Sun 04:38:18 PM 34.0458 -83.5300 52° Northeast 421 484 41,000  Level Atlanta Center
Sun 04:39:18 PM 34.1142 -83.4167 54° Northeast 421 484 41,000  Level Atlanta Center
Sun 04:40:18 PM 34.1864 -83.3031 52° Northeast 421 484 41,000  Level Atlanta Center
Sun 04:41:18 PM 34.2608 -83.1867 52° Northeast 421 484 41,000  Level Atlanta Center
Sun 04:42:18 PM 34.3289 -83.0753 53° Northeast 416 479 41,000  Level Atlanta Center
Sun 04:43:18 PM 34.3989 -82.9614 53° Northeast 421 484 41,000  Level Atlanta Center
Sun 04:44:18 PM 34.4708 -82.8444 53° Northeast 421 484 41,000  Level Atlanta Center
Sun 04:45:18 PM 34.5386 -82.7300 54° Northeast 421 484 41,000  Level Atlanta Center
Sun 04:46:18 PM 34.6125 -82.6178 51° Northeast 421 484 41,000  Level Atlanta Center
Sun 04:47:18 PM 34.6758 -82.5158 53° Northeast 421 484 41,000  Level Atlanta Center
Sun 04:48:18 PM 34.7456 -82.4033 53° Northeast 421 484 41,000  Level Atlanta Center
Sun 04:49:18 PM 34.8169 -82.2881 53° Northeast 421 484 41,000  Level Atlanta Center
Sun 04:50:18 PM 34.8861 -82.1700 54° Northeast 421 484 41,000  Level Atlanta Center
Sun 04:51:18 PM 34.9656 -82.0442 52° Northeast 421 484 41,000  Level Atlanta Center
Sun 04:52:18 PM 35.0264 -81.9386 55° Northeast 421 484 41,000  Level Atlanta Center
Sun 04:53:18 PM 35.0931 -81.8203 55° Northeast 421 484 41,000  Level Atlanta Center
Sun 04:54:18 PM 35.1575 -81.6914 59° Northeast 426 490 41,000  Level Atlanta Center
Sun 04:55:18 PM 35.2219 -81.5725 56° Northeast 426 490 41,000  Level Atlanta Center
Sun 04:56:18 PM 35.2861 -81.4461 58° Northeast 426 490 41,000  Level Atlanta Center
Sun 04:57:18 PM 35.3567 -81.3267 54° Northeast 426 490 41,000  Level Atlanta Center
Sun 04:58:18 PM 35.4311 -81.2094 52° Northeast 426 490 41,000  Level Atlanta Center
Sun 04:59:18 PM 35.5056 -81.0897 53° Northeast 437 503 41,000  Level Atlanta Center
Sun 05:00:18 PM 35.5861 -80.9744 49° Northeast 443 510 41,000  Level Atlanta Center
Sun 05:01:18 PM 35.6606 -80.8617 51° Northeast 437 503 41,000  Level Atlanta Center
Sun 05:02:18 PM 35.7347 -80.7461 52° Northeast 437 503 41,000  Level Atlanta Center
Sun 05:03:18 PM 35.8086 -80.6281 52° Northeast 437 503 41,000  Level Atlanta Center
Sun 05:04:18 PM 35.8844 -80.5122 51° Northeast 431 496 41,000  Level Atlanta Center
Sun 05:06:16 PM 36.0353 -80.2694 52° Northeast 446 513 41,000  Level Washington Center
Sun 05:07:16 PM 36.1169 -80.1561 48° Northeast 446 513 41,000  Level Washington Center
Sun 05:08:14 PM 36.2042 -80.0556 43° Northeast 432 497 41,000  Level Washington Center
Sun 05:09:15 PM 36.2894 -79.9547 44° Northeast 426 490 41,000  Level Washington Center
Sun 05:10:16 PM 36.3633 -79.8711 42° Northeast 426 490 41,000  Level Washington Center
Sun 05:11:15 PM 36.4572 -79.7550 45° Northeast 426 490 41,000  Level Washington Center
Sun 05:12:15 PM 36.5592 -79.6389 42° Northeast 431 496 41,000  Level Washington Center
Sun 05:13:16 PM 36.6461 -79.5347 44° Northeast 431 496 41,000  Level Washington Center
Sun 05:14:16 PM 36.7311 -79.4222 47° Northeast 431 496 41,000  Level Washington Center
Sun 05:15:15 PM 36.8011 -79.3219 49° Northeast 431 496 41,000  Level Washington Center
Sun 05:16:15 PM 36.8656 -79.1903 59° Northeast 431 496 41,000  Level Washington Center
Sun 05:17:16 PM 36.9236 -79.0631 60° Northeast 431 496 41,000  Level Washington Center
Sun 05:18:16 PM 36.9967 -78.9181 58° Northeast 431 496 41,000  Level Washington Center
Sun 05:19:14 PM 37.0606 -78.7906 58° Northeast 436 502 41,000  Level Washington Center
Sun 05:20:15 PM 37.1244 -78.6603 58° Northeast 436 502 41,000  Level Washington Center
Sun 05:21:15 PM 37.1817 -78.5453 58° Northeast 442 509 41,000  Level Washington Center
Sun 05:22:17 PM 37.2453 -78.4175 58° Northeast 437 503 41,000  Level Washington Center
Sun 05:23:15 PM 37.3086 -78.2867 59° Northeast 437 503 41,000  Level Washington Center
Sun 05:24:15 PM 37.3764 -78.1453 59° Northeast 437 503 41,000  Level Washington Center
Sun 05:25:16 PM 37.4683 -78.0411 42° Northeast 430 495 41,000 -893 Level Washington Center
Sun 05:26:16 PM 37.5683 -77.9447 37° Northeast 430 495 39,200 -1,949 Descending Washington Center
Sun 05:27:13 PM 37.6642 -77.8453 39° Northeast 441 507 37,200 -1,627 Descending Washington Center
Sun 05:28:14 PM 37.7597 -77.7458 39° Northeast 441 507 36,000 -590 Descending Washington Center
Sun 05:29:15 PM 37.8575 -77.6433 40° Northeast 441 507 36,000  Level Washington Center
Sun 05:30:15 PM 37.9550 -77.5406 40° Northeast 441 507 36,000  Level Washington Center
Sun 05:31:16 PM 38.0419 -77.4533 38° Northeast 446 513 36,000  Level Washington Center
Sun 05:32:14 PM 38.1394 -77.3447 41° Northeast 440 506 36,000  Level Washington Center
Sun 05:33:15 PM 38.2475 -77.2389 38° Northeast 445 512 36,000 -1,180 Level Washington Center
Sun 05:34:16 PM 38.3342 -77.1428 41° Northeast 457 526 33,600 -2,218 Descending Washington Center
Sun 05:35:14 PM 38.4400 -77.0283 40° Northeast 457 526 31,600 -4,840 Descending Washington Center
Sun 05:36:15 PM 38.5328 -76.9239 41° Northeast 451 519 24,000 -2,557 Descending Washington Center
Sun 05:37:16 PM 38.6214 -76.8353 38° Northeast 451 519 26,400 99 Climbing Washington Center
Sun 05:38:16 PM 38.7142 -76.7358 40° Northeast 446 513 24,200 -1,220 Descending Washington Center
Sun 05:39:14 PM 38.7964 -76.6358 43° Northeast 431 496 24,000 -101 Descending Washington Center
Sun 05:40:15 PM 38.8889 -76.5303 42° Northeast 407 468 24,000  Level Washington Center
Sun 05:41:16 PM 38.9772 -76.4272 42° Northeast 407 468 24,000  Level Washington Center
Sun 05:42:14 PM 39.0611 -76.3294 42° Northeast 407 468 24,000 50 Level Washington Center
Sun 05:43:15 PM 39.1450 -76.2258 44° Northeast 407 468 24,100  Climbing Washington Center
Sun 05:44:16 PM 39.2289 -76.1356 40° Northeast 413 475 24,000 -51 Descending Washington Center
Sun 05:45:13 PM 39.3169 -76.0342 42° Northeast 413 475 24,000  Level Washington Center
Sun 05:46:14 PM 39.4006 -75.9353 42° Northeast 413 475 24,000 -1,770 Level Washington Center
Sun 05:48:33 PM 39.6333 -75.7667 29° Northeast 393 452 18,100 -2,610 Descending Philadelphia TRACON
Sun 05:49:34 PM 39.7167 -75.7000 32° Northeast 361 415 15,300 -2,479 Descending Philadelphia TRACON
Sun 05:50:34 PM 39.8000 -75.6500 25° Northeast 346 398 13,100 -1,158 Descending Philadelphia TRACON
Sun 05:51:28 PM 39.8833 -75.5833 32° Northeast 343 395 13,100  Level Philadelphia TRACON
Sun 05:52:27 PM 39.9667 -75.5167 32° Northeast 342 394 13,100  Level Philadelphia TRACON
Sun 05:53:27 PM 40.0333 -75.4333 44° Northeast 347 399 13,100 -248 Level Philadelphia TRACON
Sun 05:54:28 PM 40.1000 -75.3500 44° Northeast 347 399 12,600 -1,240 Descending Philadelphia TRACON
Sun 05:55:28 PM 40.1833 -75.2667 37° Northeast 330 380 10,600 -2,158 Descending Philadelphia TRACON
Sun 05:56:22 PM 40.2333 -75.2000 45° Northeast 297 342 8,500 -1,603 Descending Philadelphia TRACON
Sun 05:57:39 PM 40.3167 -75.1167 37° Northeast 284 327 7,100 -641 Descending New York TRACON
Sun 05:58:33 PM 40.3667 -75.0500 45° Northeast 299 344 7,100 -53 Level New York TRACON
Sun 05:59:33 PM 40.4167 -74.9833 45° Northeast 280 322 7,000 -1,100 Descending New York TRACON
Sun 06:00:33 PM 40.4667 -74.9000 52° Northeast 286 329 4,900 -1,450 Descending New York TRACON
Sun 06:01:33 PM 40.5167 -74.8333 45° Northeast 270 311 4,100 -400 Descending New York TRACON
Sun 06:02:33 PM 40.5833 -74.7667 37° Northeast 265 305 4,100  Level New York TRACON
Sun 06:03:33 PM 40.6333 -74.7167 37° Northeast 270 311 4,100 -50 Level New York TRACON
Sun 06:04:33 PM 40.7000 -74.6500 37° Northeast 275 316 4,000 -500 Descending New York TRACON
Sun 06:05:33 PM 40.7667 -74.5833 37° Northeast 282 325 3,100 -450 Descending New York TRACON
Sun 06:06:33 PM 40.8167 -74.5167 45° Northeast 274 315 3,100  Level New York TRACON
Sun 06:07:33 PM 40.8667 -74.4333 52° Northeast 281 323 3,100  Level New York TRACON
Sun 06:08:33 PM 40.9167 -74.3667 45° Northeast 277 319 3,100  Level New York TRACON
Sun 06:09:33 PM 40.9667 -74.2833 52° Northeast 287 330 3,100 -500 Level New York TRACON
Sun 06:10:33 PM 41.0167 -74.2000 51° Northeast 284 327 2,100 -500 Descending New York TRACON
Sun 06:11:33 PM 41.0000 -74.1167 105° East 222 255 2,100  Level New York TRACON
Sun 06:12:33 PM 40.9667 -74.0667 131° Southeast 170 196 2,100 -250 Level New York TRACON
Sun 06:13:33 PM 40.9333 -74.0500 159° South 153 176 1,600 -550 Descending New York TRACON
Sun 06:14:33 PM 40.9000 -74.0500 180° South 106 122 1,000 -550 Descending New York TRACON
Sun 06:15:33 PM 40.8667 -74.0500 180° South 104 120 500 -500 Descending New York TRACON

Login

Don't have an account? Register now (free) for customized features, flight alerts, and more!